Time;durP1;ratioP1;P1;durP2;ratioP2;P2;SDS_P1;SDS_P2;PMS_P1;PMS_P2;Temp;Humidity;BMP_temperature;BMP_pressure;BME280_temperature;BME280_humidity;BME280_pressure;Samples;Min_cycle;Max_cycle;Signal;HPM_P1;HPM_P2
2022/10/22 00:01:42;;;;;;;2.00;0.97;;;13.70;94.30;;;;;;5035528;28;20185;-70
2022/10/22 00:04:08;;;;;;;1.27;0.87;;;13.80;94.20;;;;;;5035958;28;20197;-73
2022/10/22 00:06:33;;;;;;;4.23;1.40;;;13.70;94.40;;;;;;5036017;28;20186;-71
2022/10/22 00:08:59;;;;;;;3.83;0.90;;;13.70;94.60;;;;;;5034893;28;20223;-71
2022/10/22 00:11:24;;;;;;;1.37;1.03;;;13.60;94.80;;;;;;5034692;28;20598;-70
2022/10/22 00:13:50;;;;;;;1.93;0.93;;;13.60;94.80;;;;;;5028657;28;20224;-70
2022/10/22 00:16:16;;;;;;;1.43;0.90;;;13.70;94.90;;;;;;5032496;28;20261;-72
2022/10/22 00:18:41;;;;;;;2.23;1.20;;;13.70;95.00;;;;;;5029563;28;20233;-72
2022/10/22 00:21:07;;;;;;;2.07;0.70;;;13.70;95.20;;;;;;5030566;28;20185;-72
2022/10/22 00:23:33;;;;;;;2.17;0.80;;;13.70;95.20;;;;;;5028539;28;20704;-72
2022/10/22 00:25:59;;;;;;;1.83;0.80;;;13.80;95.20;;;;;;5029637;28;20565;-72
2022/10/22 00:28:25;;;;;;;1.50;1.10;;;13.80;95.20;;;;;;5024709;28;20231;-71
2022/10/22 00:30:58;;;;;;;1.63;0.70;;;13.80;95.00;;;;;;5031370;28;20828;-72
2022/10/22 00:33:24;;;;;;;2.63;0.93;;;13.80;95.20;;;;;;5026715;28;20436;-71
2022/10/22 00:35:50;;;;;;;1.13;0.80;;;13.80;95.20;;;;;;5029450;28;20464;-73
2022/10/22 00:38:16;;;;;;;1.30;0.80;;;13.80;94.80;;;;;;5028652;28;21026;-71
2022/10/22 00:40:42;;;;;;;1.03;0.80;;;13.90;94.90;;;;;;5031218;28;20192;-71
2022/10/22 00:43:16;;;;;;;2.60;1.03;;;13.90;95.00;;;;;;5030324;28;20482;-73
2022/10/22 00:45:43;;;;;;;1.50;0.90;;;13.90;95.00;;;;;;5028824;28;20271;-72
2022/10/22 00:48:17;;;;;;;4.03;1.00;;;13.90;95.00;;;;;;5025054;28;20522;-73
2022/10/22 00:50:48;;;;;;;4.40;1.20;;;13.90;95.10;;;;;;5029744;28;20423;-71
2022/10/22 00:53:18;;;;;;;0.83;0.80;;;13.90;95.20;;;;;;5029095;28;20485;-71
2022/10/22 00:55:46;;;;;;;2.80;1.03;;;13.80;95.40;;;;;;5029699;28;20429;-72
2022/10/22 00:58:13;;;;;;;1.37;1.03;;;13.80;95.70;;;;;;5025780;28;20467;-73
2022/10/22 01:00:39;;;;;;;5.60;1.23;;;13.70;96.00;;;;;;5030574;28;20455;-70
2022/10/22 01:03:05;;;;;;;1.33;1.10;;;13.70;96.10;;;;;;5029280;28;20830;-71
2022/10/22 01:05:45;;;;;;;1.97;1.10;;;13.70;95.90;;;;;;5025769;28;20220;-70
2022/10/22 01:08:23;;;;;;;1.67;1.10;;;13.70;96.00;;;;;;5028162;28;20491;-72
2022/10/22 01:11:16;;;;;;;3.57;1.17;;;13.70;96.20;;;;;;5028517;28;20489;-71
2022/10/22 01:14:12;;;;;;;2.30;1.10;;;13.60;96.30;;;;;;5029576;28;20948;-72
2022/10/22 01:17:04;;;;;;;1.77;1.00;;;13.70;96.10;;;;;;5027055;28;20427;-72
2022/10/22 01:20:12;;;;;;;1.53;0.80;;;13.70;96.20;;;;;;5027929;28;20452;-71
2022/10/22 01:22:42;;;;;;;2.03;0.97;;;13.70;96.00;;;;;;5029112;28;20424;-70
2022/10/22 01:25:29;;;;;;;1.10;0.90;;;13.70;95.90;;;;;;5030313;28;20470;-72
2022/10/22 01:28:06;;;;;;;1.30;0.97;;;13.70;95.80;;;;;;5027488;28;20505;-72
2022/10/22 01:30:34;;;;;;;1.90;0.97;;;13.80;95.70;;;;;;5026141;28;20405;-70
2022/10/22 01:33:05;;;;;;;1.77;0.90;;;13.80;95.40;;;;;;5019027;28;20590;-71
2022/10/22 01:35:35;;;;;;;2.17;1.20;;;13.80;95.30;;;;;;5023718;28;20435;-69
2022/10/22 01:38:04;;;;;;;3.13;0.90;;;13.80;95.40;;;;;;5018455;28;21018;-71
2022/10/22 01:40:31;;;;;;;2.50;1.10;;;13.90;95.30;;;;;;5027196;28;20428;-71
2022/10/22 01:43:00;;;;;;;3.30;1.23;;;14.00;95.00;;;;;;5026872;28;20825;-69
2022/10/22 01:45:29;;;;;;;5.07;0.93;;;14.00;94.90;;;;;;5028656;28;20916;-68
2022/10/22 01:48:17;;;;;;;1.30;1.00;;;14.00;95.00;;;;;;5023442;28;21040;-70
2022/10/22 01:50:52;;;;;;;1.70;1.00;;;14.00;95.00;;;;;;5029154;28;20423;-71
2022/10/22 01:53:35;;;;;;;2.20;1.37;;;13.90;94.80;;;;;;5028278;28;20993;-70
2022/10/22 01:56:39;;;;;;;1.73;1.27;;;14.00;95.00;;;;;;5027891;28;20450;-71
2022/10/22 01:59:14;;;;;;;2.00;1.10;;;14.00;95.10;;;;;;5023800;28;20834;-69
2022/10/22 02:01:48;;;;;;;1.30;0.87;;;14.10;95.00;;;;;;5028056;28;20470;-73
2022/10/22 02:04:36;;;;;;;1.90;1.20;;;14.10;94.80;;;;;;5029267;28;20937;-69
2022/10/22 02:07:06;;;;;;;3.13;1.13;;;14.10;94.90;;;;;;5023804;28;20461;-70
2022/10/22 02:09:32;;;;;;;2.70;1.10;;;14.10;95.00;;;;;;5029559;28;20459;-71
2022/10/22 02:12:05;;;;;;;2.53;1.00;;;14.10;94.90;;;;;;5029366;28;21046;-70
2022/10/22 02:14:32;;;;;;;2.27;1.00;;;14.10;94.90;;;;;;5029373;28;20442;-70
2022/10/22 02:16:59;;;;;;;2.97;0.97;;;14.10;95.00;;;;;;5028078;28;20925;-71
2022/10/22 02:19:34;;;;;;;2.33;1.10;;;14.10;95.10;;;;;;5026154;28;20427;-70
2022/10/22 02:22:00;;;;;;;2.43;1.30;;;14.10;95.00;;;;;;5029807;28;20466;-72
2022/10/22 02:24:26;;;;;;;3.13;1.20;;;14.10;94.90;;;;;;5030463;28;20432;-70
2022/10/22 02:27:11;;;;;;;3.70;1.10;;;14.10;94.90;;;;;;5031151;28;20189;-71
2022/10/22 02:29:48;;;;;;;1.97;1.13;;;14.10;94.50;;;;;;5029286;28;20665;-70
2022/10/22 02:32:18;;;;;;;1.87;1.30;;;14.10;94.20;;;;;;5030348;28;20518;-72
2022/10/22 02:34:46;;;;;;;2.93;1.30;;;14.10;94.20;;;;;;5030343;28;20487;-69
2022/10/22 02:37:12;;;;;;;1.00;0.80;;;14.10;94.20;;;;;;5026980;28;20472;-71
2022/10/22 02:39:39;;;;;;;1.00;0.83;;;14.10;94.20;;;;;;5029176;28;20421;-69
2022/10/22 02:42:04;;;;;;;1.60;1.00;;;14.20;93.80;;;;;;5029876;28;20432;-71
2022/10/22 02:44:30;;;;;;;1.50;0.90;;;14.20;93.50;;;;;;5025894;28;20835;-72
2022/10/22 02:46:56;;;;;;;2.13;1.00;;;14.20;93.50;;;;;;5027530;28;20189;-73
2022/10/22 02:49:22;;;;;;;1.30;0.90;;;14.20;93.60;;;;;;5024103;28;20236;-72
2022/10/22 02:51:47;;;;;;;1.17;0.83;;;14.20;93.60;;;;;;5031414;28;20502;-71
2022/10/22 02:54:13;;;;;;;2.20;0.97;;;14.20;93.80;;;;;;5032560;28;20197;-69
2022/10/22 02:56:39;;;;;;;2.60;1.10;;;14.20;94.00;;;;;;5030163;28;20194;-69
2022/10/22 02:59:04;;;;;;;1.70;0.90;;;14.20;94.20;;;;;;5027711;28;20206;-71
2022/10/22 03:01:30;;;;;;;2.60;1.00;;;14.20;94.20;;;;;;5033821;28;20197;-72
2022/10/22 03:03:55;;;;;;;2.23;1.33;;;14.30;93.90;;;;;;5033828;28;20190;-70
2022/10/22 03:06:21;;;;;;;1.70;1.03;;;14.30;93.50;;;;;;5025768;28;20194;-69
2022/10/22 03:08:47;;;;;;;5.03;0.80;;;14.30;93.20;;;;;;5029655;28;20582;-69
2022/10/22 03:11:12;;;;;;;2.60;1.33;;;14.30;93.00;;;;;;5026665;28;20197;-70
2022/10/22 03:13:38;;;;;;;2.60;1.30;;;14.30;92.70;;;;;;5031205;28;20217;-71
2022/10/22 03:16:03;;;;;;;1.87;0.90;;;14.40;92.50;;;;;;5033165;28;20228;-71
2022/10/22 03:18:29;;;;;;;2.13;1.40;;;14.40;92.30;;;;;;5028273;28;20977;-70
2022/10/22 03:21:22;;;;;;;1.93;1.10;;;14.40;92.30;;;;;;5031427;28;20189;-70
2022/10/22 03:23:48;;;;;;;1.50;0.93;;;14.40;92.10;;;;;;5027770;28;20182;-70
2022/10/22 03:26:14;;;;;;;1.70;1.03;;;14.40;92.20;;;;;;5031585;28;20435;-70
2022/10/22 03:28:40;;;;;;;2.30;1.17;;;14.40;92.30;;;;;;5027797;28;20613;-71
2022/10/22 03:31:06;;;;;;;2.53;1.50;;;14.40;92.30;;;;;;5031174;28;20426;-71
2022/10/22 03:33:32;;;;;;;2.80;1.00;;;14.50;91.90;;;;;;5030687;28;20805;-71
2022/10/22 03:35:59;;;;;;;1.20;0.87;;;14.50;91.50;;;;;;5031947;28;20845;-71
2022/10/22 03:38:25;;;;;;;3.37;1.87;;;14.50;91.30;;;;;;5030170;28;20218;-70
2022/10/22 03:40:50;;;;;;;2.30;0.90;;;14.60;90.90;;;;;;5032263;28;20450;-70
2022/10/22 03:43:17;;;;;;;1.63;1.10;;;14.50;91.00;;;;;;5036301;28;20446;-71
2022/10/22 03:45:42;;;;;;;1.30;0.90;;;14.50;91.60;;;;;;5035187;28;20185;-72
2022/10/22 03:48:08;;;;;;;2.33;1.30;;;14.50;92.10;;;;;;5034551;28;20463;-70
2022/10/22 03:50:33;;;;;;;1.20;0.87;;;14.40;92.60;;;;;;5037471;28;20646;-73
2022/10/22 03:52:59;;;;;;;1.23;0.90;;;14.50;92.80;;;;;;5034608;28;20293;-72
2022/10/22 03:55:24;;;;;;;2.90;1.20;;;14.50;92.60;;;;;;5032843;28;20186;-70
2022/10/22 03:57:50;;;;;;;3.70;1.27;;;14.40;92.90;;;;;;5034902;28;20213;-70
2022/10/22 04:00:16;;;;;;;2.30;1.20;;;14.40;93.20;;;;;;5036842;28;20214;-71
2022/10/22 04:02:41;;;;;;;7.00;1.10;;;14.30;93.30;;;;;;5035518;28;20189;-72
2022/10/22 04:05:07;;;;;;;3.60;1.00;;;14.20;93.40;;;;;;5033612;28;20189;-71
2022/10/22 04:07:33;;;;;;;1.60;0.93;;;14.20;93.50;;;;;;5027941;28;20205;-69
2022/10/22 04:09:58;;;;;;;2.80;1.30;;;14.20;93.60;;;;;;5031933;28;20661;-70
2022/10/22 04:12:24;;;;;;;1.87;1.10;;;14.10;93.80;;;;;;5028156;28;20253;-73
2022/10/22 04:14:49;;;;;;;3.07;1.13;;;14.10;93.60;;;;;;5031634;28;20793;-71
2022/10/22 04:17:15;;;;;;;1.60;1.00;;;14.10;93.80;;;;;;5029059;28;20234;-72
2022/10/22 04:19:40;;;;;;;4.53;1.30;;;14.10;93.90;;;;;;5029392;28;20185;-71
2022/10/22 04:22:06;;;;;;;3.47;1.30;;;14.00;94.10;;;;;;5031091;28;20799;-71
2022/10/22 04:24:32;;;;;;;3.20;1.70;;;14.00;94.40;;;;;;5026973;28;20645;-72
2022/10/22 04:26:58;;;;;;;2.07;1.40;;;14.00;94.50;;;;;;5024688;28;20645;-72
2022/10/22 04:29:24;;;;;;;4.50;1.57;;;14.00;94.50;;;;;;5027764;28;20448;-71
2022/10/22 04:31:49;;;;;;;1.90;1.20;;;14.00;94.40;;;;;;5030494;28;20244;-71
2022/10/22 04:34:15;;;;;;;1.70;1.00;;;14.10;94.40;;;;;;5029182;28;20425;-73
2022/10/22 04:36:41;;;;;;;1.37;1.13;;;14.00;94.40;;;;;;5030551;28;20188;-71
2022/10/22 04:39:06;;;;;;;3.30;0.90;;;14.00;94.10;;;;;;5025792;28;20456;-70
2022/10/22 04:41:35;;;;;;;1.53;1.00;;;14.00;94.00;;;;;;5026233;28;20203;-70
2022/10/22 04:44:01;;;;;;;1.93;1.10;;;14.00;93.90;;;;;;5028210;28;20190;-70
2022/10/22 04:46:29;;;;;;;3.03;1.20;;;14.00;93.80;;;;;;5030792;28;20428;-72
2022/10/22 04:48:55;;;;;;;2.93;0.93;;;14.10;93.50;;;;;;5026540;28;20467;-71
2022/10/22 04:51:23;;;;;;;2.17;1.00;;;14.00;93.50;;;;;;5031345;28;20493;-72
2022/10/22 04:53:49;;;;;;;1.97;1.40;;;14.00;93.40;;;;;;5029103;28;20185;-70
2022/10/22 04:56:20;;;;;;;5.73;1.23;;;14.00;93.50;;;;;;5030190;28;20416;-72
2022/10/22 04:58:51;;;;;;;1.73;1.20;;;14.10;93.30;;;;;;5025459;28;20456;-70
2022/10/22 05:01:19;;;;;;;1.90;1.40;;;14.00;93.40;;;;;;5031503;28;20920;-70
2022/10/22 05:03:47;;;;;;;2.73;0.80;;;14.00;93.50;;;;;;5030239;28;20424;-74
2022/10/22 05:06:13;;;;;;;1.20;1.00;;;14.00;93.50;;;;;;5029469;28;20428;-70
2022/10/22 05:08:39;;;;;;;0.80;0.70;;;14.00;93.40;;;;;;5031178;28;20991;-71
2022/10/22 05:11:13;;;;;;;1.80;1.20;;;14.00;93.10;;;;;;5027951;28;20411;-72
2022/10/22 05:13:38;;;;;;;1.47;0.97;;;14.10;92.80;;;;;;5027280;28;21065;-70
2022/10/22 05:16:04;;;;;;;1.37;0.90;;;14.10;92.60;;;;;;5030119;28;20470;-69
2022/10/22 05:18:33;;;;;;;2.37;1.47;;;14.10;92.60;;;;;;5030533;28;20253;-70
2022/10/22 05:20:59;;;;;;;1.57;1.00;;;14.10;92.50;;;;;;5031495;28;20920;-70
2022/10/22 05:23:24;;;;;;;3.03;0.90;;;14.10;92.50;;;;;;5033560;28;20423;-69
2022/10/22 05:25:50;;;;;;;1.90;1.07;;;14.10;92.60;;;;;;5034194;28;20200;-69
2022/10/22 05:28:16;;;;;;;2.03;0.97;;;14.10;92.60;;;;;;5030625;28;20288;-70
2022/10/22 05:30:41;;;;;;;3.83;0.93;;;14.10;92.50;;;;;;5030397;28;20212;-71
2022/10/22 05:33:07;;;;;;;1.33;0.90;;;14.20;92.30;;;;;;5037973;28;20287;-70
2022/10/22 05:35:32;;;;;;;2.57;0.83;;;14.20;92.10;;;;;;5036917;28;20185;-71
2022/10/22 05:37:58;;;;;;;1.80;1.03;;;14.20;92.00;;;;;;5036611;28;20205;-71
2022/10/22 05:40:23;;;;;;;1.30;0.87;;;14.30;91.80;;;;;;5038385;28;20212;-71
2022/10/22 05:42:49;;;;;;;1.63;1.07;;;14.30;91.80;;;;;;5039624;28;20205;-71
2022/10/22 05:45:15;;;;;;;6.07;1.30;;;14.30;91.70;;;;;;5038579;28;20196;-70
2022/10/22 05:47:40;;;;;;;7.90;1.33;;;14.30;91.70;;;;;;5035573;28;20221;-69
2022/10/22 05:50:06;;;;;;;1.73;1.00;;;14.40;91.70;;;;;;5038143;28;20265;-70
2022/10/22 05:52:32;;;;;;;1.53;1.10;;;14.40;91.30;;;;;;5038453;28;20739;-71
2022/10/22 05:54:57;;;;;;;4.20;1.47;;;14.40;91.20;;;;;;5034743;28;20433;-71
2022/10/22 05:57:23;;;;;;;1.30;0.90;;;14.40;91.10;;;;;;5032101;28;20200;-71
2022/10/22 05:59:48;;;;;;;1.40;1.00;;;14.40;91.20;;;;;;5035418;28;20189;-70
2022/10/22 06:02:14;;;;;;;1.20;0.90;;;14.40;91.20;;;;;;5037913;28;20197;-72
2022/10/22 06:04:39;;;;;;;1.73;1.10;;;14.50;90.80;;;;;;5036073;28;20212;-69
2022/10/22 06:07:08;;;;;;;1.77;1.30;;;14.40;91.10;;;;;;5036796;28;20194;-70
2022/10/22 06:09:35;;;;;;;2.37;1.23;;;14.40;91.20;;;;;;5042073;28;20229;-69
2022/10/22 06:12:01;;;;;;;2.00;1.17;;;14.40;91.30;;;;;;5040878;28;20475;-72
2022/10/22 06:14:27;;;;;;;1.93;0.90;;;14.40;91.20;;;;;;5046229;28;20432;-70
2022/10/22 06:16:54;;;;;;;1.57;1.20;;;14.40;91.10;;;;;;5043095;28;20846;-70
2022/10/22 06:19:21;;;;;;;2.50;1.10;;;14.40;90.90;;;;;;5033128;28;21396;-69
2022/10/22 06:21:48;;;;;;;2.17;1.17;;;14.40;91.00;;;;;;5036023;28;20452;-70
2022/10/22 06:24:14;;;;;;;1.10;1.00;;;14.40;90.90;;;;;;5036353;28;20455;-70
2022/10/22 06:26:40;;;;;;;2.63;0.80;;;14.40;90.70;;;;;;5040270;28;20839;-69
2022/10/22 06:29:06;;;;;;;2.47;1.20;;;14.40;90.50;;;;;;5035403;28;20467;-71
2022/10/22 06:31:35;;;;;;;2.60;1.00;;;14.50;90.30;;;;;;5038416;28;20478;-72
2022/10/22 06:34:06;;;;;;;4.00;1.00;;;14.50;90.20;;;;;;5037040;28;20439;-70
2022/10/22 06:36:32;;;;;;;1.80;0.93;;;14.50;90.10;;;;;;5038944;28;20436;-71
2022/10/22 06:38:57;;;;;;;3.10;1.00;;;14.50;90.00;;;;;;5034404;28;20471;-69
2022/10/22 06:41:23;;;;;;;1.50;1.10;;;14.60;89.90;;;;;;5035933;28;20197;-70
2022/10/22 06:43:49;;;;;;;2.50;1.00;;;14.60;90.00;;;;;;5038836;28;20213;-71
2022/10/22 06:46:18;;;;;;;1.27;1.10;;;14.70;89.90;;;;;;5041032;28;20187;-69
2022/10/22 06:48:49;;;;;;;3.30;1.23;;;14.70;89.70;;;;;;5037511;28;20205;-70
2022/10/22 06:51:15;;;;;;;2.73;1.33;;;14.70;89.70;;;;;;5042249;28;20444;-70
2022/10/22 06:53:41;;;;;;;1.60;1.00;;;14.70;89.70;;;;;;5040317;28;20430;-70
2022/10/22 06:56:08;;;;;;;7.70;1.17;;;14.70;89.70;;;;;;5039545;28;20638;-70
2022/10/22 06:58:34;;;;;;;2.57;1.10;;;14.70;89.90;;;;;;5036563;28;20455;-72
2022/10/22 07:01:06;;;;;;;2.17;1.07;;;14.80;90.00;;;;;;5035380;28;20416;-71
2022/10/22 07:03:32;;;;;;;2.30;1.47;;;14.80;90.00;;;;;;5038296;28;20436;-71
2022/10/22 07:06:00;;;;;;;2.27;1.20;;;14.80;90.30;;;;;;5040906;28;20452;-70
2022/10/22 07:08:25;;;;;;;2.20;0.90;;;14.90;90.30;;;;;;5037215;28;20316;-70
2022/10/22 07:10:51;;;;;;;2.87;1.43;;;14.90;90.00;;;;;;5038072;28;20444;-71
2022/10/22 07:13:17;;;;;;;2.70;1.50;;;14.90;90.00;;;;;;5035676;28;20218;-72
2022/10/22 07:15:42;;;;;;;2.60;1.90;;;15.00;90.00;;;;;;5040368;28;20181;-70
2022/10/22 07:18:08;;;;;;;1.83;1.07;;;15.00;90.00;;;;;;5038989;28;20682;-72
2022/10/22 07:20:33;;;;;;;1.40;0.90;;;15.00;90.00;;;;;;5042084;28;20704;-72
2022/10/22 07:22:59;;;;;;;2.80;1.00;;;15.00;90.00;;;;;;5044012;28;20215;-71
2022/10/22 07:25:24;;;;;;;6.53;1.87;;;15.10;89.90;;;;;;5041540;28;20243;-71
2022/10/22 07:27:51;;;;;;;1.40;0.83;;;15.10;89.70;;;;;;5036352;28;20267;-72
2022/10/22 07:30:17;;;;;;;1.70;1.20;;;15.10;90.00;;;;;;5039764;28;20190;-70
2022/10/22 07:32:42;;;;;;;1.80;1.07;;;15.10;90.00;;;;;;5039249;28;20524;-70
2022/10/22 07:35:08;;;;;;;4.00;1.20;;;15.20;90.00;;;;;;5039117;28;20189;-71
2022/10/22 07:37:34;;;;;;;3.33;1.00;;;15.30;89.60;;;;;;5040064;28;20202;-71
2022/10/22 07:39:59;;;;;;;2.77;1.00;;;15.30;89.60;;;;;;5041982;28;20224;-70
2022/10/22 07:42:25;;;;;;;1.73;1.07;;;15.20;90.00;;;;;;5042574;28;20698;-71
2022/10/22 07:44:50;;;;;;;6.80;1.30;;;15.20;90.10;;;;;;5040104;28;20277;-69
2022/10/22 07:47:16;;;;;;;2.40;1.17;;;15.30;90.20;;;;;;5035733;28;20248;-69
2022/10/22 07:49:41;;;;;;;1.67;1.10;;;15.30;90.20;;;;;;5036986;28;20240;-69
2022/10/22 07:52:07;;;;;;;1.53;1.23;;;15.20;90.30;;;;;;5034597;28;20289;-69
2022/10/22 07:54:32;;;;;;;1.53;1.17;;;15.20;90.40;;;;;;5032691;28;20193;-67
2022/10/22 07:56:58;;;;;;;1.20;1.10;;;15.20;90.50;;;;;;5032893;28;20701;-68
2022/10/22 07:59:24;;;;;;;1.80;1.27;;;15.20;90.60;;;;;;5031657;28;20197;-69
2022/10/22 08:01:49;;;;;;;3.17;1.30;;;15.30;90.60;;;;;;5032860;28;20204;-69
2022/10/22 08:04:15;;;;;;;1.97;0.97;;;15.40;90.40;;;;;;5033316;28;20216;-70
2022/10/22 08:06:40;;;;;;;2.17;1.50;;;15.40;90.30;;;;;;5032198;28;20646;-69
2022/10/22 08:09:06;;;;;;;2.33;1.00;;;15.40;90.30;;;;;;5028901;28;20217;-69
2022/10/22 08:11:32;;;;;;;6.37;1.50;;;15.50;90.50;;;;;;5029552;28;20192;-69
2022/10/22 08:13:58;;;;;;;2.40;1.57;;;15.50;90.50;;;;;;5030570;28;20612;-70
2022/10/22 08:16:24;;;;;;;4.17;1.40;;;15.70;90.10;;;;;;5032075;28;20540;-69
2022/10/22 08:18:50;;;;;;;2.30;1.30;;;15.70;89.90;;;;;;5029844;28;20465;-69
2022/10/22 08:21:16;;;;;;;1.30;1.10;;;15.70;89.90;;;;;;5026562;28;20428;-69
2022/10/22 08:23:42;;;;;;;3.70;1.57;;;15.70;90.00;;;;;;5032527;28;20176;-69
2022/10/22 08:26:09;;;;;;;3.77;1.27;;;15.70;89.90;;;;;;5033476;28;20510;-69
2022/10/22 08:28:36;;;;;;;2.77;1.50;;;15.70;90.00;;;;;;5028862;28;20981;-68
2022/10/22 08:31:03;;;;;;;3.27;1.37;;;15.80;90.10;;;;;;5031171;28;20978;-71
2022/10/22 08:33:29;;;;;;;2.10;1.03;;;15.70;90.00;;;;;;5028160;28;21002;-70
2022/10/22 08:35:55;;;;;;;2.57;1.30;;;15.60;90.30;;;;;;5032881;28;20431;-70
2022/10/22 08:38:20;;;;;;;2.70;1.47;;;15.60;90.50;;;;;;5028826;28;20312;-70
2022/10/22 08:40:51;;;;;;;1.57;1.50;;;15.70;90.40;;;;;;5032507;28;20928;-70
2022/10/22 08:43:54;;;;;;;3.10;1.57;;;15.60;90.40;;;;;;5031896;28;20816;-71
2022/10/22 08:47:00;;;;;;;4.33;1.70;;;15.60;90.50;;;;;;5029880;28;20485;-71
2022/10/22 08:49:30;;;;;;;3.17;1.70;;;15.60;90.60;;;;;;5029400;28;20434;-69
2022/10/22 08:51:57;;;;;;;2.63;1.50;;;15.60;90.70;;;;;;5032351;28;20893;-70
2022/10/22 08:54:49;;;;;;;2.00;1.43;;;15.70;90.60;;;;;;5033029;28;20466;-72
2022/10/22 08:57:29;;;;;;;7.83;1.70;;;15.70;90.60;;;;;;5044334;28;20445;-70
2022/10/22 09:00:15;;;;;;;2.13;1.10;;;15.70;90.60;;;;;;5030813;28;20519;-71
2022/10/22 09:02:56;;;;;;;3.47;2.13;;;15.90;90.50;;;;;;5030518;28;20967;-70
2022/10/22 09:05:27;;;;;;;2.43;1.33;;;16.00;89.70;;;;;;5030760;28;20419;-71
2022/10/22 09:07:54;;;;;;;2.10;1.30;;;16.20;89.30;;;;;;5032047;28;20463;-72
2022/10/22 09:10:25;;;;;;;3.30;1.33;;;16.30;89.20;;;;;;5031997;28;20571;-70
2022/10/22 09:12:51;;;;;;;2.37;1.50;;;16.40;89.00;;;;;;5030166;28;20471;-70
2022/10/22 09:15:18;;;;;;;2.13;1.20;;;16.50;88.60;;;;;;5030075;28;20510;-71
2022/10/22 09:17:52;;;;;;;1.60;1.07;;;16.60;87.80;;;;;;5029362;28;20216;-71
2022/10/22 09:20:35;;;;;;;2.63;1.00;;;16.70;87.60;;;;;;5031228;28;20946;-72
2022/10/22 09:23:20;;;;;;;2.50;1.30;;;16.80;87.00;;;;;;5020474;28;20432;-71
2022/10/22 09:25:48;;;;;;;3.10;1.63;;;17.00;86.80;;;;;;5031642;28;20461;-71
2022/10/22 09:28:13;;;;;;;4.37;1.63;;;17.10;86.20;;;;;;5031435;28;20456;-70
2022/10/22 09:30:39;;;;;;;2.20;1.07;;;17.10;86.20;;;;;;5033436;28;20485;-69
2022/10/22 09:33:04;;;;;;;2.30;1.20;;;17.20;85.90;;;;;;5032688;28;20282;-71
2022/10/22 09:35:34;;;;;;;3.10;1.20;;;17.30;85.30;;;;;;5032189;28;20178;-71
2022/10/22 09:38:06;;;;;;;1.70;1.10;;;17.40;84.40;;;;;;5029504;28;20204;-72
2022/10/22 09:40:45;;;;;;;1.40;1.10;;;17.40;84.70;;;;;;5032817;28;20511;-71
2022/10/22 09:43:12;;;;;;;1.10;0.93;;;17.50;84.70;;;;;;5030770;28;20445;-72
2022/10/22 09:45:38;;;;;;;2.00;1.50;;;17.60;83.30;;;;;;5032523;28;20430;-72
2022/10/22 09:48:14;;;;;;;1.70;1.20;;;17.60;83.40;;;;;;5025808;28;20459;-70
2022/10/22 09:50:44;;;;;;;3.00;1.67;;;17.70;82.80;;;;;;5031508;28;20192;-71
2022/10/22 09:53:13;;;;;;;1.50;1.40;;;17.80;82.70;;;;;;5028773;28;20471;-70
2022/10/22 09:55:41;;;;;;;1.90;1.60;;;17.90;81.90;;;;;;5031080;28;20415;-70
2022/10/22 09:58:11;;;;;;;2.53;1.20;;;18.00;81.90;;;;;;5027922;28;20830;-71
2022/10/22 10:00:38;;;;;;;1.87;1.20;;;18.00;81.90;;;;;;5028753;28;20967;-72
2022/10/22 10:03:04;;;;;;;1.67;1.10;;;18.00;80.90;;;;;;5028384;28;20963;-70
2022/10/22 10:05:33;;;;;;;3.00;1.40;;;18.00;81.70;;;;;;5030146;28;20521;-69
2022/10/22 10:08:04;;;;;;;4.30;1.30;;;18.10;81.20;;;;;;5026231;28;20217;-71
2022/10/22 10:10:56;;;;;;;1.70;1.50;;;18.20;80.90;;;;;;5028931;28;20963;-69
2022/10/22 10:13:28;;;;;;;3.87;1.47;;;18.20;80.90;;;;;;5018899;28;20892;-69
2022/10/22 10:16:00;;;;;;;3.20;1.40;;;18.30;80.50;;;;;;5022631;28;20430;-71
2022/10/22 10:18:53;;;;;;;2.00;1.50;;;18.50;80.00;;;;;;5026771;28;20487;-70
2022/10/22 10:21:27;;;;;;;1.90;1.13;;;18.80;78.60;;;;;;5028967;28;21003;-70
2022/10/22 10:24:00;;;;;;;2.17;1.10;;;19.30;77.00;;;;;;5029390;28;20407;-69
2022/10/22 10:26:41;;;;;;;3.07;1.10;;;19.80;74.90;;;;;;5028377;28;20443;-69
2022/10/22 10:29:38;;;;;;;1.60;1.10;;;20.10;71.00;;;;;;5025911;28;20453;-69
2022/10/22 10:32:25;;;;;;;2.90;1.07;;;20.50;71.30;;;;;;5029969;28;20838;-71
2022/10/22 10:35:00;;;;;;;2.43;1.53;;;21.10;68.90;;;;;;5025480;28;20422;-70
2022/10/22 10:37:42;;;;;;;3.20;1.20;;;21.40;68.60;;;;;;5027987;28;20455;-71
2022/10/22 10:40:23;;;;;;;3.20;1.60;;;21.60;66.30;;;;;;5030472;28;20422;-69
2022/10/22 10:43:10;;;;;;;2.87;1.27;;;21.50;67.60;;;;;;5029567;28;20450;-69
2022/10/22 10:45:57;;;;;;;4.03;1.20;;;20.40;68.90;;;;;;5029983;28;20513;-70
2022/10/22 10:48:49;;;;;;;4.03;1.33;;;20.40;69.90;;;;;;5029491;28;20844;-71
2022/10/22 10:51:37;;;;;;;5.40;1.53;;;21.00;68.60;;;;;;5033713;28;20780;-69
2022/10/22 10:54:42;;;;;;;1.30;1.20;;;21.30;66.90;;;;;;5029705;28;20426;-71
2022/10/22 10:57:23;;;;;;;8.17;2.30;;;21.70;66.40;;;;;;5032297;28;20406;-74
2022/10/22 10:59:53;;;;;;;4.43;1.87;;;21.40;65.70;;;;;;5035419;28;20427;-71
2022/10/22 11:02:46;;;;;;;5.60;2.03;;;21.50;67.20;;;;;;5032071;28;20419;-69
2022/10/22 11:05:31;;;;;;;2.60;1.70;;;21.60;66.00;;;;;;5027305;28;20888;-72
2022/10/22 11:08:13;;;;;;;1.50;1.20;;;21.00;67.60;;;;;;5023255;28;20833;-71
2022/10/22 11:10:45;;;;;;;1.83;1.30;;;21.20;65.10;;;;;;5031121;28;20910;-71
2022/10/22 11:13:29;;;;;;;3.43;1.73;;;21.60;64.50;;;;;;5029968;28;20460;-70
2022/10/22 11:16:19;;;;;;;2.13;1.37;;;21.70;64.10;;;;;;5024510;28;20413;-71
2022/10/22 11:18:54;;;;;;;4.50;2.23;;;21.20;66.00;;;;;;5026173;28;20558;-71
2022/10/22 11:21:19;;;;;;;2.70;1.70;;;21.50;66.60;;;;;;5030300;28;20473;-72
2022/10/22 11:23:55;;;;;;;6.43;1.40;;;21.60;65.80;;;;;;5030602;28;20935;-71
2022/10/22 11:26:36;;;;;;;3.03;2.00;;;22.00;64.10;;;;;;5031769;28;20285;-73
2022/10/22 11:29:05;;;;;;;2.97;1.30;;;22.30;61.50;;;;;;5029731;28;20987;-71
2022/10/22 11:31:32;;;;;;;2.20;1.13;;;22.00;62.50;;;;;;5034764;28;20414;-72
2022/10/22 11:34:30;;;;;;;2.90;1.53;;;22.10;62.30;;;;;;5034665;28;20426;-72
2022/10/22 11:36:57;;;;;;;3.37;1.20;;;22.20;61.70;;;;;;5029794;28;20501;-72
2022/10/22 11:39:29;;;;;;;5.20;1.43;;;21.90;62.30;;;;;;5031648;28;20445;-72
2022/10/22 11:41:57;;;;;;;2.10;1.37;;;22.20;61.90;;;;;;5031479;28;20472;-70
2022/10/22 11:44:24;;;;;;;3.30;1.77;;;22.40;61.70;;;;;;5034454;28;20431;-69
2022/10/22 11:47:15;;;;;;;5.03;1.60;;;22.10;62.00;;;;;;5032416;28;20445;-72
2022/10/22 11:49:45;;;;;;;4.77;1.77;;;21.60;64.10;;;;;;5032885;28;20506;-71
2022/10/22 11:52:26;;;;;;;5.80;2.10;;;22.20;63.10;;;;;;5029164;28;20524;-71
2022/10/22 11:54:54;;;;;;;2.77;1.97;;;22.90;61.60;;;;;;5027568;28;20442;-72
2022/10/22 11:57:37;;;;;;;4.67;1.17;;;23.20;59.90;;;;;;5030010;28;20569;-71
2022/10/22 12:00:30;;;;;;;3.60;1.30;;;22.30;61.00;;;;;;5030361;28;20817;-72
2022/10/22 12:03:15;;;;;;;6.10;1.43;;;22.10;63.20;;;;;;5022978;28;20882;-71
2022/10/22 12:05:42;;;;;;;3.10;1.33;;;22.40;61.70;;;;;;5028661;28;21071;-72
2022/10/22 12:08:22;;;;;;;4.30;1.40;;;22.50;61.00;;;;;;5023889;28;20458;-72
2022/10/22 12:10:59;;;;;;;2.47;1.50;;;22.60;61.00;;;;;;5031729;28;20470;-72
2022/10/22 12:13:28;;;;;;;3.23;1.30;;;22.50;61.50;;;;;;5029998;28;20543;-69
2022/10/22 12:15:58;;;;;;;6.00;1.77;;;21.80;64.40;;;;;;5028826;28;20523;-71
2022/10/22 12:18:38;;;;;;;5.00;2.93;;;22.10;64.80;;;;;;5025362;28;20459;-71
2022/10/22 12:21:04;;;;;;;2.57;1.60;;;22.10;63.70;;;;;;5026279;28;20511;-73
2022/10/22 12:23:33;;;;;;;2.97;1.27;;;21.70;64.20;;;;;;5028216;28;20834;-69
2022/10/22 12:25:59;;;;;;;2.50;1.57;;;21.30;64.80;;;;;;5022178;28;20188;-71
2022/10/22 12:28:25;;;;;;;2.70;1.67;;;21.40;65.10;;;;;;5026287;28;21030;-70
2022/10/22 12:30:50;;;;;;;2.97;1.50;;;21.40;65.00;;;;;;5029006;28;20200;-73
2022/10/22 12:33:21;;;;;;;4.23;2.03;;;21.40;65.40;;;;;;5029190;28;20276;-71
2022/10/22 12:35:50;;;;;;;2.47;1.50;;;21.30;65.80;;;;;;5030699;28;20188;-72
2022/10/22 12:38:21;;;;;;;3.80;1.30;;;21.40;64.80;;;;;;5027357;28;20462;-72
2022/10/22 12:40:49;;;;;;;2.47;1.20;;;21.20;62.80;;;;;;5025578;28;20520;-72
2022/10/22 12:43:23;;;;;;;1.57;1.03;;;20.80;63.40;;;;;;5031152;28;20477;-72
2022/10/22 12:45:50;;;;;;;2.83;1.50;;;20.80;63.90;;;;;;5026500;28;20422;-72
2022/10/22 12:48:38;;;;;;;3.67;1.20;;;21.50;63.20;;;;;;5025637;28;20532;-71
2022/10/22 12:51:07;;;;;;;2.30;1.47;;;22.40;60.00;;;;;;5020986;28;20852;-72
2022/10/22 12:54:03;;;;;;;4.70;1.60;;;22.80;57.40;;;;;;5025987;28;20464;-72
2022/10/22 12:56:32;;;;;;;3.80;1.17;;;23.10;56.60;;;;;;5007225;28;20492;-72
2022/10/22 12:59:01;;;;;;;4.33;1.40;;;23.20;54.60;;;;;;5019400;28;20468;-71
2022/10/22 13:01:31;;;;;;;1.93;0.90;;;22.90;55.00;;;;;;5028241;28;20438;-71
2022/10/22 13:04:05;;;;;;;2.10;1.30;;;22.90;54.60;;;;;;5018298;28;20493;-71
2022/10/22 13:06:34;;;;;;;3.20;1.40;;;23.10;54.60;;;;;;5028239;28;20421;-71